Weather at Khalkhalah Air Base

Public forecast

Using degrees Celsius for public forecast. Weather courtesy of forecast.io.

Closest aviation weather report (METAR) to Khalkhalah Air Base

Report is more than 2 hours old.

Closest report is Damascus International Airport, 20.2 nm (37.4 km) N. Retrieved 2021/01/15 12:00 UTC (2 hours ago):

OSDI 151200Z 26018KT 9999 FEW030 SCT100 15/03 Q1015

Closest aviation forecast (TAF) to Khalkhalah Air Base

Closest forecast is Damascus International Airport, 20.2 nm (37.4 km) N. Retrieved 2021/01/15 12:54 UTC (1 hour ago):

TAF TAF OSDI 151100Z 1512/1612 24015KT 8000 FEW030 SCT100 PROB30 TEMPO 1512/1618 28015G25KT 5000 SHRA FEW025CB SCT030 OVC100